createdAt,value
2019-04-10T00:23:45.239Z,6.60
2019-04-10T00:53:49.764Z,6.50
2019-04-10T01:23:53.682Z,6.30
2019-04-10T01:53:58.525Z,6.00
2019-04-10T02:24:02.941Z,5.70
2019-04-10T02:54:06.676Z,5.60
2019-04-10T03:24:10.356Z,5.30
2019-04-10T03:54:15.172Z,5.30
2019-04-10T04:24:21.266Z,5.30
2019-04-10T04:54:25.504Z,5.30
2019-04-10T05:24:30.043Z,5.10
2019-04-10T05:54:33.885Z,5.10
2019-04-10T07:57:02.583Z,6.40
2019-04-10T08:27:07.395Z,7.00
2019-04-10T08:57:12.224Z,7.30
2019-04-10T09:27:17.113Z,7.80
2019-04-10T09:57:21.022Z,9.00
2019-04-10T10:27:24.775Z,9.20
2019-04-10T10:57:28.614Z,9.70
2019-04-10T11:27:34.252Z,10.40
2019-04-10T11:57:38.176Z,10.10
2019-04-10T12:27:42.094Z,9.60
2019-04-10T12:57:46.047Z,9.70
2019-04-10T13:27:50.770Z,9.90
2019-04-10T13:57:55.041Z,9.80
2019-04-10T14:27:59.094Z,9.80
2019-04-10T14:58:03.484Z,9.40
2019-04-10T15:28:08.470Z,9.50
2019-04-10T15:58:12.860Z,9.20
2019-04-10T16:28:17.925Z,8.90
2019-04-10T16:58:21.785Z,8.70
2019-04-10T17:28:26.578Z,8.50
2019-04-10T17:58:31.657Z,8.50
2019-04-10T18:28:37.913Z,8.40
2019-04-10T18:58:43.714Z,8.40
2019-04-10T19:28:48.781Z,8.20
2019-04-10T19:58:52.730Z,8.20
2019-04-10T20:28:57.649Z,8.00
2019-04-10T20:59:02.195Z,7.70
2019-04-10T21:29:09.403Z,7.30
2019-04-10T21:59:16.017Z,6.60
2019-04-10T22:29:19.573Z,6.20
2019-04-10T22:59:24.223Z,6.00
2019-04-10T23:29:29.250Z,5.70
2019-04-10T23:59:33.549Z,5.60
